Terminal Aerodrome Forecast
Issued by NWS Charleston, WV

Current Version | Previous Version | Text Only | Print | Product List | Glossary Off
Versions: 1 2 3 4 5 6 7 8 9 10 11 12 13 14 15 16 17

000
FTUS41 KRLX 261800 AAA
TAFHTS
TAF AMD
KHTS 261842Z 2619/2718 19007KT P6SM SCT250
     FM270400 19002KT P6SM SCT150
     FM271300 19006KT P6SM BKN090=

USA.gov is the U.S. government's official web portal to all federal, state and local government web resources and services.